Wilson, New York
Current Conditions -  °F | °C
As of 4:53 AM on Sunday 23 Nov 2014 (Local Time) from KIAG Reporting Station
Overcast Overcast  
Wind Chill: 41°   Ceiling: 5500
Heat Index: 46°   Visibility: 10mi
Dew Point: 39°   Wind: 12mph
Humidity: 76%   Direction: 230°SW
Pressure: 29.98"   Gusts: NA
Location:  43.31°N, 78.83°W
Report Text: KIAG 230953Z AUTO 23010KT 10SM FEW032 OVC055 08/04 A2998 RMK AO2 SLP160 T00780039 $
Loading
Personal Weather Stations






























Interactive Weather Map New forecast layout! Learn more

10-Day Weather Forecast

Advertisements
Track Severe Weather on mobile